createdAt,value
2018-12-24T00:01:47.252Z,11.00
2018-12-24T00:04:15.768Z,14.20
2018-12-24T00:06:44.395Z,12.60
2018-12-24T00:09:12.958Z,18.30
2018-12-24T00:11:41.522Z,15.07
2018-12-24T00:14:10.060Z,16.73
2018-12-24T00:16:38.620Z,13.93
2018-12-24T00:19:07.144Z,14.73
2018-12-24T00:21:35.677Z,16.67
2018-12-24T00:24:04.296Z,13.27
2018-12-24T00:26:32.804Z,11.93
2018-12-24T00:29:01.333Z,14.47
2018-12-24T00:31:29.870Z,11.93
2018-12-24T00:33:58.429Z,11.97
2018-12-24T00:36:27.058Z,11.80
2018-12-24T00:38:56.095Z,13.23
2018-12-24T00:41:24.619Z,11.20
2018-12-24T00:43:53.130Z,12.20
2018-12-24T00:46:21.669Z,11.70
2018-12-24T00:48:50.204Z,12.93
2018-12-24T00:51:18.720Z,13.57
2018-12-24T00:53:47.279Z,13.47
2018-12-24T00:56:15.804Z,12.10
2018-12-24T00:58:44.316Z,10.80
2018-12-24T01:01:12.867Z,12.57
2018-12-24T01:03:41.389Z,12.00
2018-12-24T01:06:10.021Z,14.70
2018-12-24T01:08:38.539Z,14.90
2018-12-24T01:11:07.050Z,12.73
2018-12-24T01:13:35.591Z,14.67
2018-12-24T01:16:04.295Z,15.73
2018-12-24T01:18:32.813Z,13.50
2018-12-24T01:21:01.385Z,15.67
2018-12-24T01:23:29.943Z,15.60
2018-12-24T01:25:58.481Z,15.93
2018-12-24T01:28:27.035Z,16.70
2018-12-24T01:30:55.576Z,13.90
2018-12-24T01:33:24.110Z,11.57
2018-12-24T01:35:52.688Z,15.50
2018-12-24T01:38:21.244Z,14.70
2018-12-24T01:40:49.794Z,11.57
2018-12-24T01:43:18.459Z,13.03
2018-12-24T01:45:46.973Z,13.70
2018-12-24T01:48:15.528Z,12.67
2018-12-24T01:50:44.090Z,14.60
2018-12-24T01:53:13.019Z,13.77
2018-12-24T01:55:41.561Z,14.13
2018-12-24T01:58:10.099Z,15.53
2018-12-24T02:00:38.657Z,12.93
2018-12-24T02:03:07.210Z,15.37
2018-12-24T02:05:35.729Z,11.63
2018-12-24T02:08:04.293Z,11.40
2018-12-24T02:10:32.816Z,13.80
2018-12-24T02:13:01.346Z,12.80
2018-12-24T02:15:29.933Z,10.80
2018-12-24T02:17:58.442Z,10.07
2018-12-24T02:20:26.977Z,14.67
2018-12-24T02:22:55.536Z,11.60
2018-12-24T02:25:24.043Z,10.20
2018-12-24T02:27:52.578Z,11.43
2018-12-24T02:30:21.132Z,14.93
2018-12-24T02:32:49.669Z,11.83
2018-12-24T02:35:18.318Z,11.50
2018-12-24T02:37:46.851Z,12.67
2018-12-24T02:40:15.396Z,11.77
2018-12-24T02:42:52.417Z,12.13
2018-12-24T02:45:14.183Z,13.70
2018-12-24T02:47:42.737Z,12.97
2018-12-24T02:50:11.290Z,12.30
2018-12-24T02:52:39.958Z,13.93
2018-12-24T02:55:08.500Z,14.43
2018-12-24T02:57:37.010Z,13.83
2018-12-24T03:00:06.789Z,12.47
2018-12-24T03:02:35.305Z,16.53
2018-12-24T03:05:03.826Z,13.83
2018-12-24T03:07:32.441Z,17.13
2018-12-24T03:10:00.947Z,15.40
2018-12-24T03:12:29.496Z,14.20
2018-12-24T03:14:58.044Z,16.40
2018-12-24T03:17:26.888Z,17.10
2018-12-24T03:19:55.453Z,16.53
2018-12-24T03:22:23.967Z,15.00
2018-12-24T03:24:52.510Z,18.70
2018-12-24T03:27:21.086Z,16.00
2018-12-24T03:29:49.599Z,14.20
2018-12-24T03:32:18.216Z,15.80
2018-12-24T03:34:46.783Z,12.87
2018-12-24T03:37:15.296Z,13.50
2018-12-24T03:39:43.852Z,15.37
2018-12-24T03:42:12.406Z,7.70
2018-12-24T03:44:41.187Z,9.83
2018-12-24T03:47:09.722Z,11.23
2018-12-24T03:49:38.957Z,6.90
2018-12-24T03:52:07.516Z,6.53
2018-12-24T03:54:36.048Z,7.50
2018-12-24T03:57:04.576Z,7.77
2018-12-24T03:59:33.113Z,6.50
2018-12-24T04:02:01.626Z,6.07
2018-12-24T04:04:30.154Z,6.43
2018-12-24T04:06:58.710Z,4.77
2018-12-24T04:09:27.241Z,6.03
2018-12-24T04:11:55.798Z,5.37
2018-12-24T04:14:24.345Z,5.90
2018-12-24T04:16:52.875Z,5.67
2018-12-24T04:19:21.438Z,5.97
2018-12-24T04:21:49.963Z,4.80
2018-12-24T04:24:18.497Z,5.80
2018-12-24T04:26:47.142Z,7.37
2018-12-24T04:29:15.654Z,6.90
2018-12-24T04:31:44.185Z,6.67
2018-12-24T04:34:12.737Z,6.33
2018-12-24T04:36:41.263Z,6.77
2018-12-24T04:39:09.799Z,6.90
2018-12-24T04:41:38.337Z,8.33
2018-12-24T04:44:06.857Z,9.00
2018-12-24T04:46:35.429Z,8.43
2018-12-24T04:49:03.956Z,8.93
2018-12-24T04:51:32.509Z,7.63
2018-12-24T04:54:01.031Z,7.43
2018-12-24T04:56:29.603Z,7.80
2018-12-24T04:58:58.137Z,6.13
2018-12-24T05:01:26.648Z,6.50
2018-12-24T05:03:55.174Z,6.70
2018-12-24T05:06:23.718Z,6.30
2018-12-24T05:08:52.258Z,5.93
2018-12-24T05:11:20.803Z,5.90
2018-12-24T05:13:49.345Z,5.20
2018-12-24T05:16:17.981Z,5.33
2018-12-24T05:18:46.521Z,5.67
2018-12-24T05:21:15.031Z,5.47
2018-12-24T05:23:43.582Z,6.20
2018-12-24T05:26:12.110Z,5.70
2018-12-24T05:28:40.650Z,7.33
2018-12-24T05:31:09.198Z,5.77
2018-12-24T05:33:37.715Z,5.50
2018-12-24T05:36:06.238Z,5.17
2018-12-24T05:38:34.807Z,6.97
2018-12-24T05:41:03.322Z,7.13
2018-12-24T05:43:31.858Z,5.73
2018-12-24T05:46:00.428Z,5.20
2018-12-24T05:48:28.931Z,5.97
2018-12-24T05:50:57.489Z,6.07
2018-12-24T05:53:26.515Z,7.60
2018-12-24T05:55:55.578Z,5.80
2018-12-24T05:58:24.117Z,5.73
2018-12-24T06:00:53.110Z,7.63
2018-12-24T06:03:21.633Z,6.37
2018-12-24T06:05:51.240Z,6.67
2018-12-24T06:08:19.997Z,6.77
2018-12-24T06:10:48.649Z,7.17
2018-12-24T06:13:17.245Z,7.63
2018-12-24T06:15:45.794Z,9.00
2018-12-24T06:18:14.306Z,7.33
2018-12-24T06:20:42.892Z,7.23
2018-12-24T06:23:11.443Z,8.30
2018-12-24T06:25:39.947Z,8.50
2018-12-24T06:28:08.609Z,7.73
2018-12-24T06:30:37.139Z,7.63
2018-12-24T06:33:05.663Z,6.13
2018-12-24T06:35:34.218Z,6.47
2018-12-24T06:38:02.738Z,8.00
2018-12-24T06:40:31.281Z,6.40
2018-12-24T06:42:59.821Z,5.37
2018-12-24T06:45:28.416Z,4.83
2018-12-24T06:47:56.967Z,5.37
2018-12-24T06:50:25.480Z,4.90
2018-12-24T06:52:54.005Z,6.00
2018-12-24T06:55:23.025Z,4.80
2018-12-24T06:57:51.543Z,4.27
2018-12-24T07:00:20.169Z,5.47
2018-12-24T07:02:48.717Z,4.37
2018-12-24T07:05:18.675Z,4.07
2018-12-24T07:07:47.222Z,4.93
2018-12-24T07:10:15.739Z,3.53
2018-12-24T07:12:44.265Z,3.77
2018-12-24T07:15:12.875Z,2.47
2018-12-24T07:17:41.416Z,2.87
2018-12-24T07:20:10.012Z,2.40
2018-12-24T07:22:38.547Z,2.30
2018-12-24T07:25:07.112Z,2.30
2018-12-24T07:27:35.631Z,3.57
2018-12-24T07:30:04.982Z,2.27
2018-12-24T07:32:34.605Z,3.43
2018-12-24T07:35:03.448Z,3.17
2018-12-24T07:37:31.965Z,2.73
2018-12-24T07:40:00.676Z,2.70
2018-12-24T07:42:29.471Z,2.80
2018-12-24T07:44:57.964Z,3.13
2018-12-24T07:47:26.518Z,3.90
2018-12-24T07:49:55.171Z,2.80
2018-12-24T07:52:23.780Z,3.33
2018-12-24T07:54:52.344Z,2.90
2018-12-24T07:57:20.949Z,3.40
2018-12-24T07:59:49.647Z,3.87
2018-12-24T08:02:18.193Z,4.30
2018-12-24T08:04:46.787Z,3.27
2018-12-24T08:07:15.320Z,3.53
2018-12-24T08:09:44.005Z,4.70
2018-12-24T08:12:12.959Z,3.73
2018-12-24T08:14:41.525Z,3.40
2018-12-24T08:17:10.029Z,2.93
2018-12-24T08:19:38.714Z,3.70
2018-12-24T08:22:07.878Z,3.43
2018-12-24T08:24:36.400Z,3.30
2018-12-24T08:27:05.013Z,3.07
2018-12-24T08:29:33.725Z,3.63
2018-12-24T08:32:02.298Z,4.00
2018-12-24T08:34:31.037Z,4.43
2018-12-24T08:36:59.630Z,4.17
2018-12-24T08:39:28.190Z,4.30
2018-12-24T08:41:56.850Z,4.13
2018-12-24T08:44:25.456Z,5.63
2018-12-24T08:46:54.037Z,4.40
2018-12-24T08:49:22.633Z,4.37
2018-12-24T08:51:51.170Z,4.30
2018-12-24T08:54:19.750Z,5.30
2018-12-24T08:56:48.428Z,4.20
2018-12-24T08:59:16.897Z,3.93
2018-12-24T09:01:45.527Z,4.30
2018-12-24T09:04:14.084Z,7.13
2018-12-24T09:06:42.670Z,4.30
2018-12-24T09:09:11.292Z,4.23
2018-12-24T09:11:40.194Z,4.53
2018-12-24T09:14:08.713Z,4.53
2018-12-24T09:16:37.267Z,4.93
2018-12-24T09:19:05.799Z,4.80
2018-12-24T09:21:34.405Z,4.73
2018-12-24T09:24:02.936Z,5.37
2018-12-24T09:26:31.483Z,5.00
2018-12-24T09:29:01.897Z,5.77
2018-12-24T09:31:32.210Z,7.07
2018-12-24T09:34:00.773Z,6.43
2018-12-24T09:36:29.301Z,8.90
2018-12-24T09:38:57.910Z,9.00
2018-12-24T09:41:26.435Z,5.90
2018-12-24T09:43:55.150Z,6.97
2018-12-24T09:46:23.678Z,7.97
2018-12-24T09:48:52.388Z,7.80
2018-12-24T09:51:21.083Z,7.23
2018-12-24T09:53:49.626Z,7.80
2018-12-24T09:56:18.186Z,8.93
2018-12-24T09:58:48.102Z,8.27
2018-12-24T10:01:16.712Z,9.37
2018-12-24T10:03:45.501Z,9.50
2018-12-24T10:06:14.218Z,10.03
2018-12-24T10:08:42.840Z,10.00
2018-12-24T10:11:11.476Z,8.50
2018-12-24T10:13:40.218Z,11.40
2018-12-24T10:16:09.110Z,9.10
2018-12-24T10:18:37.738Z,8.77
2018-12-24T10:21:06.743Z,7.03
2018-12-24T10:23:37.683Z,7.07
2018-12-24T10:26:06.298Z,6.63
2018-12-24T10:28:35.107Z,7.13
2018-12-24T10:31:03.653Z,8.60
2018-12-24T10:33:32.199Z,5.57
2018-12-24T10:36:00.715Z,6.73
2018-12-24T10:38:30.575Z,7.10
2018-12-24T10:40:59.170Z,7.47
2018-12-24T10:43:27.751Z,7.30
2018-12-24T10:45:56.297Z,7.80
2018-12-24T10:48:24.934Z,7.30
2018-12-24T10:50:53.476Z,7.17
2018-12-24T10:53:23.490Z,6.57
2018-12-24T10:55:52.457Z,6.83
2018-12-24T10:58:21.172Z,6.97
2018-12-24T11:00:49.700Z,8.20
2018-12-24T11:03:18.233Z,8.27
2018-12-24T11:05:46.795Z,10.93
2018-12-24T11:08:16.786Z,8.10
2018-12-24T11:10:46.799Z,7.60
2018-12-24T11:13:15.549Z,7.03
2018-12-24T11:15:44.143Z,7.53
2018-12-24T11:18:12.650Z,7.37
2018-12-24T11:20:41.189Z,6.27
2018-12-24T11:23:09.881Z,6.60
2018-12-24T11:25:38.389Z,7.20
2018-12-24T11:28:07.009Z,6.63
2018-12-24T11:30:36.325Z,8.03
2018-12-24T11:33:04.783Z,5.80
2018-12-24T11:35:33.473Z,6.40
2018-12-24T11:38:01.989Z,7.23
2018-12-24T11:40:30.497Z,5.20
2018-12-24T11:42:59.329Z,5.47
2018-12-24T11:45:33.818Z,6.37
2018-12-24T11:47:58.392Z,5.73
2018-12-24T11:50:26.933Z,5.97
2018-12-24T11:52:57.349Z,4.50
2018-12-24T11:55:27.149Z,6.73
2018-12-24T11:57:55.699Z,5.70
2018-12-24T12:00:24.729Z,6.33
2018-12-24T12:02:53.245Z,8.07
2018-12-24T12:05:21.793Z,6.13
2018-12-24T12:07:50.713Z,7.37
2018-12-24T12:10:19.243Z,5.03
2018-12-24T12:12:48.087Z,4.90
2018-12-24T12:15:16.811Z,5.17
2018-12-24T12:17:45.474Z,5.20
2018-12-24T12:20:14.049Z,6.30
2018-12-24T12:22:42.688Z,9.03
2018-12-24T12:25:11.291Z,7.43
2018-12-24T12:27:40.084Z,4.40
2018-12-24T12:30:09.948Z,4.83
2018-12-24T12:32:38.447Z,4.23
2018-12-24T12:35:07.166Z,4.17
2018-12-24T12:37:38.120Z,5.73
2018-12-24T12:40:07.209Z,4.27
2018-12-24T12:42:36.017Z,4.67
2018-12-24T12:45:05.250Z,4.23
2018-12-24T12:47:33.844Z,4.07
2018-12-24T12:50:02.713Z,4.47
2018-12-24T12:52:31.525Z,5.17
2018-12-24T12:55:00.530Z,5.77
2018-12-24T12:57:29.077Z,4.27
2018-12-24T12:59:57.828Z,5.50
2018-12-24T13:02:26.355Z,5.93
2018-12-24T13:04:54.874Z,4.37
2018-12-24T13:07:24.975Z,4.77
2018-12-24T13:09:53.623Z,4.47
2018-12-24T13:12:22.217Z,5.63
2018-12-24T13:14:51.571Z,4.73
2018-12-24T13:17:20.102Z,5.23
2018-12-24T13:19:48.629Z,6.93
2018-12-24T13:22:17.712Z,5.00
2018-12-24T13:24:46.252Z,5.83
2018-12-24T13:27:15.161Z,7.20
2018-12-24T13:29:44.388Z,5.50
2018-12-24T13:32:12.924Z,5.53
2018-12-24T13:34:42.071Z,4.83
2018-12-24T13:37:10.752Z,4.90
2018-12-24T13:39:39.277Z,5.53
2018-12-24T13:42:07.963Z,4.50
2018-12-24T13:44:36.500Z,5.47
2018-12-24T13:47:05.039Z,4.23
2018-12-24T13:50:17.805Z,4.43
2018-12-24T13:52:46.234Z,4.00
2018-12-24T13:55:14.685Z,4.47
2018-12-24T13:57:43.161Z,4.47
2018-12-24T14:00:11.593Z,7.50
2018-12-24T14:02:40.038Z,3.73
2018-12-24T14:05:08.657Z,5.50
2018-12-24T14:07:37.036Z,5.93
2018-12-24T14:10:07.435Z,3.87
2018-12-24T14:12:35.855Z,5.80
2018-12-24T14:15:05.033Z,4.27
2018-12-24T14:17:33.448Z,5.00
2018-12-24T14:20:01.884Z,4.70
2018-12-24T14:22:30.288Z,4.40
2018-12-24T14:24:58.705Z,6.70
2018-12-24T14:27:27.150Z,6.10
2018-12-24T14:29:55.600Z,7.53
2018-12-24T14:32:24.069Z,5.10
2018-12-24T14:34:52.502Z,4.97
2018-12-24T14:37:21.016Z,5.47
2018-12-24T14:39:49.471Z,6.80
2018-12-24T14:42:17.926Z,4.70
2018-12-24T14:44:46.354Z,5.60
2018-12-24T14:47:14.789Z,5.03
2018-12-24T14:49:43.280Z,7.27
2018-12-24T14:52:11.707Z,5.27
2018-12-24T14:54:40.143Z,8.90
2018-12-24T14:57:08.576Z,6.03
2018-12-24T14:59:36.992Z,5.23
2018-12-24T15:02:05.429Z,5.87
2018-12-24T15:04:33.990Z,5.13
2018-12-24T15:07:02.406Z,7.07
2018-12-24T15:09:30.850Z,7.57
2018-12-24T15:11:59.355Z,6.17
2018-12-24T15:14:27.808Z,5.77
2018-12-24T15:16:56.238Z,7.23
2018-12-24T15:19:24.860Z,7.23
2018-12-24T15:21:53.300Z,7.27
2018-12-24T15:24:21.719Z,9.23
2018-12-24T15:26:50.215Z,8.93
2018-12-24T15:29:18.666Z,7.80
2018-12-24T15:31:47.511Z,8.43
2018-12-24T15:34:16.002Z,9.13
2018-12-24T15:36:44.878Z,8.47
2018-12-24T15:39:13.284Z,7.10
2018-12-24T15:41:41.719Z,8.33
2018-12-24T15:44:10.173Z,10.77
2018-12-24T15:46:42.674Z,7.13
2018-12-24T15:49:08.817Z,7.53
2018-12-24T15:51:37.332Z,7.47
2018-12-24T15:54:05.734Z,6.23
2018-12-24T15:56:34.209Z,6.83
2018-12-24T15:59:02.623Z,7.93
2018-12-24T16:01:31.050Z,8.13
2018-12-24T16:03:59.528Z,6.00
2018-12-24T16:06:27.923Z,7.60
2018-12-24T16:08:57.101Z,6.17
2018-12-24T16:11:25.567Z,5.93
2018-12-24T16:13:54.013Z,6.07
2018-12-24T16:16:22.441Z,6.40
2018-12-24T16:18:50.873Z,6.20
2018-12-24T16:21:19.280Z,6.33
2018-12-24T16:23:47.784Z,6.20
2018-12-24T16:26:16.367Z,6.93
2018-12-24T16:28:45.056Z,6.90
2018-12-24T16:31:13.523Z,7.93
2018-12-24T16:33:41.985Z,6.60
2018-12-24T16:36:10.433Z,5.57
2018-12-24T16:38:38.830Z,6.43
2018-12-24T16:41:07.233Z,6.40
2018-12-24T16:43:35.667Z,8.30
2018-12-24T16:46:04.096Z,6.93
2018-12-24T16:48:32.532Z,7.13
2018-12-24T16:51:01.026Z,6.00
2018-12-24T16:53:29.429Z,7.27
2018-12-24T16:55:57.850Z,6.97
2018-12-24T16:58:26.296Z,6.33
2018-12-24T17:00:54.719Z,6.37
2018-12-24T17:03:23.200Z,7.33
2018-12-24T17:05:51.645Z,8.37
2018-12-24T17:08:20.158Z,7.27
2018-12-24T17:10:48.571Z,7.00
2018-12-24T17:13:17.020Z,7.50
2018-12-24T17:15:45.529Z,7.30
2018-12-24T17:18:15.454Z,7.03
2018-12-24T17:20:43.900Z,5.83
2018-12-24T17:23:12.330Z,7.73
2018-12-24T17:25:40.827Z,6.57
2018-12-24T17:28:09.288Z,8.13
2018-12-24T17:30:37.701Z,6.30
2018-12-24T17:33:06.110Z,7.40
2018-12-24T17:35:34.560Z,6.47
2018-12-24T17:38:02.977Z,5.97
2018-12-24T17:40:31.386Z,7.00
2018-12-24T17:42:59.832Z,6.57
2018-12-24T17:45:28.235Z,7.93
2018-12-24T17:47:56.684Z,6.60
2018-12-24T17:50:25.143Z,7.57
2018-12-24T17:52:53.548Z,6.97
2018-12-24T17:55:22.003Z,7.73
2018-12-24T17:57:50.419Z,9.17
2018-12-24T18:00:18.851Z,9.53
2018-12-24T18:02:47.886Z,9.20
2018-12-24T18:05:16.295Z,10.50
2018-12-24T18:07:44.720Z,9.33
2018-12-24T18:10:13.189Z,8.63
2018-12-24T18:12:41.614Z,8.43
2018-12-24T18:15:10.044Z,9.87
2018-12-24T18:17:38.975Z,11.17
2018-12-24T18:20:07.686Z,10.07
2018-12-24T18:22:36.114Z,10.40
2018-12-24T18:25:04.681Z,10.03
2018-12-24T18:27:33.332Z,11.57
2018-12-24T18:30:01.836Z,12.90
2018-12-24T18:32:30.266Z,10.43
2018-12-24T18:34:58.752Z,11.13
2018-12-24T18:37:27.245Z,10.10
2018-12-24T18:39:55.685Z,11.93
2018-12-24T18:42:24.112Z,11.97
2018-12-24T18:44:52.555Z,10.47
2018-12-24T18:47:20.984Z,12.90
2018-12-24T18:49:49.468Z,9.97
2018-12-24T18:52:17.913Z,9.57
2018-12-24T18:54:46.416Z,9.60
2018-12-24T18:57:14.828Z,9.90
2018-12-24T18:59:43.262Z,11.13
2018-12-24T19:02:11.697Z,10.63
2018-12-24T19:04:40.112Z,10.17
2018-12-24T19:07:08.647Z,9.80
2018-12-24T19:09:37.059Z,9.93
2018-12-24T19:12:05.481Z,10.53
2018-12-24T19:14:33.907Z,9.10
2018-12-24T19:17:02.343Z,9.63
2018-12-24T19:19:31.397Z,8.17
2018-12-24T19:21:59.806Z,11.00
2018-12-24T19:24:28.250Z,11.20
2018-12-24T19:26:56.805Z,10.57
2018-12-24T19:29:25.211Z,12.27
2018-12-24T19:31:53.638Z,15.10
2018-12-24T19:34:22.090Z,12.47
2018-12-24T19:36:50.538Z,11.70
2018-12-24T19:39:18.954Z,11.73
2018-12-24T19:41:47.401Z,11.10
2018-12-24T19:44:15.886Z,9.30
2018-12-24T19:46:44.333Z,16.97
2018-12-24T19:49:12.758Z,10.27
2018-12-24T19:51:41.221Z,12.60
2018-12-24T19:54:09.655Z,12.60
2018-12-24T19:56:38.097Z,20.13
2018-12-24T19:59:06.541Z,11.83
2018-12-24T20:01:36.614Z,10.63
2018-12-24T20:04:05.116Z,9.30
2018-12-24T20:06:33.552Z,12.43
2018-12-24T20:09:01.980Z,13.63
2018-12-24T20:11:30.395Z,11.70
2018-12-24T20:13:58.829Z,14.43
2018-12-24T20:16:27.254Z,12.97
2018-12-24T20:18:55.715Z,13.23
2018-12-24T20:21:24.134Z,13.37
2018-12-24T20:23:52.554Z,12.47
2018-12-24T20:26:20.989Z,13.10
2018-12-24T20:28:49.411Z,13.27
2018-12-24T20:31:17.840Z,14.23
2018-12-24T20:33:46.315Z,17.23
2018-12-24T20:36:14.744Z,12.97
2018-12-24T20:38:43.216Z,15.13
2018-12-24T20:41:11.607Z,15.03
2018-12-24T20:43:40.049Z,13.50
2018-12-24T20:46:08.468Z,12.33
2018-12-24T20:48:36.887Z,17.53
2018-12-24T20:51:05.444Z,13.53
2018-12-24T20:53:33.901Z,13.97
2018-12-24T20:56:02.328Z,14.87
2018-12-24T20:58:30.777Z,14.13
2018-12-24T21:00:59.203Z,13.80
2018-12-24T21:03:27.659Z,13.90
2018-12-24T21:05:56.100Z,14.87
2018-12-24T21:08:24.523Z,12.43
2018-12-24T21:10:52.960Z,15.63
2018-12-24T21:13:21.381Z,11.20
2018-12-24T21:15:49.821Z,14.00
2018-12-24T21:18:18.276Z,10.20
2018-12-24T21:20:46.703Z,14.10
2018-12-24T21:23:15.134Z,12.30
2018-12-24T21:25:43.871Z,13.23
2018-12-24T21:28:12.275Z,12.47
2018-12-24T21:30:40.734Z,13.27
2018-12-24T21:33:09.233Z,12.53
2018-12-24T21:35:37.654Z,14.83
2018-12-24T21:38:06.100Z,9.67
2018-12-24T21:40:34.509Z,12.50
2018-12-24T21:43:02.947Z,11.00
2018-12-24T21:45:34.509Z,15.00
2018-12-24T21:48:02.934Z,15.93
2018-12-24T21:50:31.371Z,12.70
2018-12-24T21:52:59.850Z,15.37
2018-12-24T21:55:28.275Z,16.40
2018-12-24T21:57:56.710Z,10.73
2018-12-24T22:00:25.189Z,16.73
2018-12-24T22:02:53.640Z,13.03
2018-12-24T22:05:22.050Z,10.73
2018-12-24T22:07:50.556Z,10.80
2018-12-24T22:10:18.984Z,12.70
2018-12-24T22:12:47.395Z,14.70
2018-12-24T22:15:15.883Z,9.03
2018-12-24T22:17:44.287Z,16.97
2018-12-24T22:20:12.708Z,11.87
2018-12-24T22:22:41.274Z,10.30
2018-12-24T22:25:09.676Z,10.17
2018-12-24T22:27:38.073Z,9.17
2018-12-24T22:30:07.304Z,10.07
2018-12-24T22:32:37.817Z,9.43
2018-12-24T22:35:06.259Z,9.70
2018-12-24T22:37:34.805Z,8.93
2018-12-24T22:59:22.701Z,8.77
2018-12-24T23:01:51.152Z,8.00
2018-12-24T23:04:19.582Z,11.13
2018-12-24T23:06:48.063Z,5.70
2018-12-24T23:09:16.513Z,6.00
2018-12-24T23:11:45.844Z,12.53
2018-12-24T23:14:14.519Z,6.13
2018-12-24T23:16:48.700Z,6.47
2018-12-24T23:19:17.128Z,7.87
2018-12-24T23:21:45.561Z,10.53
2018-12-24T23:24:13.988Z,9.97
2018-12-24T23:26:42.430Z,9.20
2018-12-24T23:29:10.860Z,6.20
2018-12-24T23:31:39.277Z,7.83
2018-12-24T23:34:07.703Z,7.03
2018-12-24T23:36:36.137Z,8.40
2018-12-24T23:39:06.695Z,9.37
2018-12-24T23:41:35.124Z,8.17
2018-12-24T23:44:03.557Z,6.77
2018-12-24T23:46:32.031Z,12.23
2018-12-24T23:49:00.466Z,8.83
2018-12-24T23:51:28.877Z,6.73
2018-12-24T23:53:57.349Z,9.43
2018-12-24T23:56:25.790Z,7.73
2018-12-24T23:58:54.217Z,11.03
